sensor_id;sensor_type;location;lat;lon;timestamp;P1;durP1;ratioP1;P2;durP2;ratioP2
5795;SDS011;2924;51.458;7.046;2022-12-18T00:01:01;4.60;;;3.07;;
5795;SDS011;2924;51.458;7.046;2022-12-18T00:03:31;6.00;;;3.57;;
5795;SDS011;2924;51.458;7.046;2022-12-18T00:05:58;5.20;;;3.80;;
5795;SDS011;2924;51.458;7.046;2022-12-18T00:08:24;5.93;;;3.73;;
5795;SDS011;2924;51.458;7.046;2022-12-18T00:10:49;4.53;;;3.63;;
5795;SDS011;2924;51.458;7.046;2022-12-18T00:13:16;5.60;;;3.57;;
5795;SDS011;2924;51.458;7.046;2022-12-18T00:15:41;7.40;;;4.60;;
5795;SDS011;2924;51.458;7.046;2022-12-18T00:18:07;4.70;;;3.87;;
5795;SDS011;2924;51.458;7.046;2022-12-18T00:20:37;7.20;;;4.73;;
5795;SDS011;2924;51.458;7.046;2022-12-18T00:23:03;5.70;;;3.50;;
5795;SDS011;2924;51.458;7.046;2022-12-18T00:25:32;5.10;;;4.10;;
5795;SDS011;2924;51.458;7.046;2022-12-18T00:28:01;5.90;;;4.07;;
5795;SDS011;2924;51.458;7.046;2022-12-18T00:30:28;8.40;;;4.17;;
5795;SDS011;2924;51.458;7.046;2022-12-18T00:32:54;5.00;;;3.70;;
5795;SDS011;2924;51.458;7.046;2022-12-18T00:35:19;6.17;;;4.40;;
5795;SDS011;2924;51.458;7.046;2022-12-18T00:37:46;5.53;;;3.27;;
5795;SDS011;2924;51.458;7.046;2022-12-18T00:40:11;3.87;;;3.50;;
5795;SDS011;2924;51.458;7.046;2022-12-18T00:42:37;4.00;;;3.57;;
5795;SDS011;2924;51.458;7.046;2022-12-18T00:45:24;4.43;;;3.00;;
5795;SDS011;2924;51.458;7.046;2022-12-18T00:47:54;5.70;;;2.87;;
5795;SDS011;2924;51.458;7.046;2022-12-18T00:50:21;3.30;;;2.90;;
5795;SDS011;2924;51.458;7.046;2022-12-18T00:52:48;5.10;;;3.90;;
5795;SDS011;2924;51.458;7.046;2022-12-18T00:55:14;4.47;;;3.50;;
5795;SDS011;2924;51.458;7.046;2022-12-18T00:57:39;3.40;;;2.97;;
5795;SDS011;2924;51.458;7.046;2022-12-18T01:00:06;4.33;;;3.50;;
5795;SDS011;2924;51.458;7.046;2022-12-18T01:02:33;5.10;;;3.20;;
5795;SDS011;2924;51.458;7.046;2022-12-18T01:04:59;6.20;;;3.43;;
5795;SDS011;2924;51.458;7.046;2022-12-18T01:07:25;3.93;;;3.50;;
5795;SDS011;2924;51.458;7.046;2022-12-18T01:09:50;5.40;;;3.50;;
5795;SDS011;2924;51.458;7.046;2022-12-18T01:12:16;8.17;;;3.70;;
5795;SDS011;2924;51.458;7.046;2022-12-18T01:14:41;3.10;;;2.77;;
5795;SDS011;2924;51.458;7.046;2022-12-18T01:17:07;6.67;;;3.70;;
5795;SDS011;2924;51.458;7.046;2022-12-18T01:19:33;3.87;;;2.83;;
5795;SDS011;2924;51.458;7.046;2022-12-18T01:21:58;3.40;;;2.80;;
5795;SDS011;2924;51.458;7.046;2022-12-18T01:24:24;4.83;;;3.30;;
5795;SDS011;2924;51.458;7.046;2022-12-18T01:26:50;5.83;;;3.23;;
5795;SDS011;2924;51.458;7.046;2022-12-18T01:29:16;5.60;;;3.47;;
5795;SDS011;2924;51.458;7.046;2022-12-18T01:31:41;7.03;;;3.80;;
5795;SDS011;2924;51.458;7.046;2022-12-18T01:34:08;3.43;;;3.13;;
5795;SDS011;2924;51.458;7.046;2022-12-18T01:36:35;6.77;;;4.10;;
5795;SDS011;2924;51.458;7.046;2022-12-18T01:39:07;5.27;;;3.90;;
5795;SDS011;2924;51.458;7.046;2022-12-18T01:41:37;7.83;;;3.47;;
5795;SDS011;2924;51.458;7.046;2022-12-18T01:50:12;4.50;;;3.80;;
5795;SDS011;2924;51.458;7.046;2022-12-18T01:52:43;9.40;;;3.60;;
5795;SDS011;2924;51.458;7.046;2022-12-18T01:55:17;5.17;;;3.40;;
5795;SDS011;2924;51.458;7.046;2022-12-18T01:57:45;3.93;;;3.10;;
5795;SDS011;2924;51.458;7.046;2022-12-18T02:00:14;11.73;;;4.20;;
5795;SDS011;2924;51.458;7.046;2022-12-18T02:02:43;3.60;;;3.20;;
5795;SDS011;2924;51.458;7.046;2022-12-18T02:05:10;7.47;;;4.07;;
5795;SDS011;2924;51.458;7.046;2022-12-18T02:10:07;3.63;;;3.13;;
5795;SDS011;2924;51.458;7.046;2022-12-18T02:15:19;3.47;;;2.97;;
5795;SDS011;2924;51.458;7.046;2022-12-18T02:20:36;3.50;;;2.60;;
5795;SDS011;2924;51.458;7.046;2022-12-18T02:23:57;3.77;;;3.07;;
5795;SDS011;2924;51.458;7.046;2022-12-18T02:28:34;3.90;;;2.60;;
5795;SDS011;2924;51.458;7.046;2022-12-18T02:31:11;2.90;;;2.60;;
5795;SDS011;2924;51.458;7.046;2022-12-18T02:33:40;4.50;;;3.33;;
5795;SDS011;2924;51.458;7.046;2022-12-18T02:36:09;2.93;;;2.70;;
5795;SDS011;2924;51.458;7.046;2022-12-18T02:38:37;5.20;;;3.50;;
5795;SDS011;2924;51.458;7.046;2022-12-18T02:41:05;4.73;;;3.60;;
5795;SDS011;2924;51.458;7.046;2022-12-18T02:43:31;5.60;;;3.50;;
5795;SDS011;2924;51.458;7.046;2022-12-18T02:45:57;5.20;;;3.07;;
5795;SDS011;2924;51.458;7.046;2022-12-18T02:48:27;4.63;;;3.50;;
5795;SDS011;2924;51.458;7.046;2022-12-18T02:53:49;2.77;;;2.57;;
5795;SDS011;2924;51.458;7.046;2022-12-18T02:56:27;6.00;;;3.27;;
5795;SDS011;2924;51.458;7.046;2022-12-18T02:59:09;4.20;;;3.07;;
5795;SDS011;2924;51.458;7.046;2022-12-18T03:04:23;4.57;;;3.33;;
5795;SDS011;2924;51.458;7.046;2022-12-18T03:06:59;3.37;;;2.97;;
5795;SDS011;2924;51.458;7.046;2022-12-18T03:09:29;5.27;;;3.80;;
5795;SDS011;2924;51.458;7.046;2022-12-18T03:12:02;3.10;;;2.63;;
5795;SDS011;2924;51.458;7.046;2022-12-18T03:14:54;5.40;;;3.07;;
5795;SDS011;2924;51.458;7.046;2022-12-18T03:17:30;5.43;;;3.10;;
5795;SDS011;2924;51.458;7.046;2022-12-18T03:19:58;4.57;;;3.37;;
5795;SDS011;2924;51.458;7.046;2022-12-18T03:22:29;3.70;;;3.30;;
5795;SDS011;2924;51.458;7.046;2022-12-18T03:24:57;6.13;;;3.43;;
5795;SDS011;2924;51.458;7.046;2022-12-18T03:27:25;3.93;;;3.10;;
5795;SDS011;2924;51.458;7.046;2022-12-18T03:30:00;7.83;;;2.83;;
5795;SDS011;2924;51.458;7.046;2022-12-18T03:32:33;3.47;;;2.60;;
5795;SDS011;2924;51.458;7.046;2022-12-18T03:35:19;5.33;;;3.30;;
5795;SDS011;2924;51.458;7.046;2022-12-18T03:37:49;3.43;;;3.10;;
5795;SDS011;2924;51.458;7.046;2022-12-18T03:40:15;4.17;;;3.37;;
5795;SDS011;2924;51.458;7.046;2022-12-18T03:45:13;3.97;;;2.97;;
5795;SDS011;2924;51.458;7.046;2022-12-18T03:48:18;3.30;;;2.80;;
5795;SDS011;2924;51.458;7.046;2022-12-18T03:50:56;5.33;;;3.43;;
5795;SDS011;2924;51.458;7.046;2022-12-18T03:53:32;4.40;;;3.57;;
5795;SDS011;2924;51.458;7.046;2022-12-18T03:56:10;3.70;;;3.30;;
5795;SDS011;2924;51.458;7.046;2022-12-18T03:58:38;5.20;;;3.90;;
5795;SDS011;2924;51.458;7.046;2022-12-18T04:01:10;3.77;;;3.03;;
5795;SDS011;2924;51.458;7.046;2022-12-18T04:03:39;6.93;;;4.10;;
5795;SDS011;2924;51.458;7.046;2022-12-18T04:06:07;3.20;;;2.90;;
5795;SDS011;2924;51.458;7.046;2022-12-18T04:08:34;3.60;;;2.80;;
5795;SDS011;2924;51.458;7.046;2022-12-18T04:11:00;4.10;;;3.00;;
5795;SDS011;2924;51.458;7.046;2022-12-18T04:13:28;4.20;;;2.90;;
5795;SDS011;2924;51.458;7.046;2022-12-18T04:15:56;4.00;;;3.30;;
5795;SDS011;2924;51.458;7.046;2022-12-18T04:18:22;4.17;;;3.47;;
5795;SDS011;2924;51.458;7.046;2022-12-18T04:20:48;4.10;;;3.00;;
5795;SDS011;2924;51.458;7.046;2022-12-18T04:23:13;5.53;;;3.70;;
5795;SDS011;2924;51.458;7.046;2022-12-18T04:25:39;5.80;;;3.30;;
5795;SDS011;2924;51.458;7.046;2022-12-18T04:28:05;4.57;;;2.87;;
5795;SDS011;2924;51.458;7.046;2022-12-18T04:30:30;6.37;;;3.37;;
5795;SDS011;2924;51.458;7.046;2022-12-18T04:32:56;4.00;;;3.60;;
5795;SDS011;2924;51.458;7.046;2022-12-18T04:35:21;5.83;;;3.20;;
5795;SDS011;2924;51.458;7.046;2022-12-18T04:37:47;3.67;;;2.77;;
5795;SDS011;2924;51.458;7.046;2022-12-18T04:40:13;2.80;;;2.30;;
5795;SDS011;2924;51.458;7.046;2022-12-18T04:42:39;2.97;;;2.70;;
5795;SDS011;2924;51.458;7.046;2022-12-18T04:45:05;3.27;;;2.80;;
5795;SDS011;2924;51.458;7.046;2022-12-18T04:47:31;3.80;;;3.03;;
5795;SDS011;2924;51.458;7.046;2022-12-18T04:49:57;5.93;;;2.70;;
5795;SDS011;2924;51.458;7.046;2022-12-18T04:52:23;4.03;;;2.73;;
5795;SDS011;2924;51.458;7.046;2022-12-18T04:54:49;4.33;;;2.90;;
5795;SDS011;2924;51.458;7.046;2022-12-18T04:57:14;4.27;;;2.17;;
5795;SDS011;2924;51.458;7.046;2022-12-18T04:59:40;2.90;;;1.83;;
5795;SDS011;2924;51.458;7.046;2022-12-18T05:02:06;5.57;;;3.20;;
5795;SDS011;2924;51.458;7.046;2022-12-18T05:04:31;4.80;;;2.47;;
5795;SDS011;2924;51.458;7.046;2022-12-18T05:06:57;2.00;;;1.83;;
5795;SDS011;2924;51.458;7.046;2022-12-18T05:09:22;2.30;;;2.07;;
5795;SDS011;2924;51.458;7.046;2022-12-18T05:11:48;1.77;;;1.67;;
5795;SDS011;2924;51.458;7.046;2022-12-18T05:14:14;2.20;;;1.87;;
5795;SDS011;2924;51.458;7.046;2022-12-18T05:16:40;2.60;;;2.40;;
5795;SDS011;2924;51.458;7.046;2022-12-18T05:19:05;1.90;;;1.80;;
5795;SDS011;2924;51.458;7.046;2022-12-18T05:21:31;3.50;;;2.20;;
5795;SDS011;2924;51.458;7.046;2022-12-18T05:23:57;2.20;;;2.00;;
5795;SDS011;2924;51.458;7.046;2022-12-18T05:26:22;2.33;;;2.20;;
5795;SDS011;2924;51.458;7.046;2022-12-18T05:28:48;3.30;;;1.90;;
5795;SDS011;2924;51.458;7.046;2022-12-18T05:31:14;3.50;;;2.20;;
5795;SDS011;2924;51.458;7.046;2022-12-18T05:33:39;1.80;;;1.70;;
5795;SDS011;2924;51.458;7.046;2022-12-18T05:36:06;1.60;;;1.50;;
5795;SDS011;2924;51.458;7.046;2022-12-18T05:38:34;2.47;;;1.90;;
5795;SDS011;2924;51.458;7.046;2022-12-18T05:41:01;1.90;;;1.80;;
5795;SDS011;2924;51.458;7.046;2022-12-18T05:43:27;2.33;;;2.03;;
5795;SDS011;2924;51.458;7.046;2022-12-18T05:45:53;1.47;;;1.37;;
5795;SDS011;2924;51.458;7.046;2022-12-18T05:48:19;3.47;;;2.07;;
5795;SDS011;2924;51.458;7.046;2022-12-18T05:50:46;1.57;;;1.50;;
5795;SDS011;2924;51.458;7.046;2022-12-18T05:53:13;2.77;;;1.90;;
5795;SDS011;2924;51.458;7.046;2022-12-18T05:55:41;3.30;;;2.30;;
5795;SDS011;2924;51.458;7.046;2022-12-18T05:58:08;2.87;;;1.43;;
5795;SDS011;2924;51.458;7.046;2022-12-18T06:00:37;3.67;;;2.00;;
5795;SDS011;2924;51.458;7.046;2022-12-18T06:03:07;2.00;;;1.60;;
5795;SDS011;2924;51.458;7.046;2022-12-18T06:05:35;3.27;;;2.10;;
5795;SDS011;2924;51.458;7.046;2022-12-18T06:08:02;1.33;;;1.30;;
5795;SDS011;2924;51.458;7.046;2022-12-18T06:10:28;2.40;;;1.80;;
5795;SDS011;2924;51.458;7.046;2022-12-18T06:12:53;2.00;;;1.83;;
5795;SDS011;2924;51.458;7.046;2022-12-18T06:15:19;2.73;;;1.90;;
5795;SDS011;2924;51.458;7.046;2022-12-18T06:17:45;3.00;;;2.80;;
5795;SDS011;2924;51.458;7.046;2022-12-18T06:20:10;1.93;;;1.83;;
5795;SDS011;2924;51.458;7.046;2022-12-18T06:22:36;2.13;;;1.90;;
5795;SDS011;2924;51.458;7.046;2022-12-18T06:25:01;2.33;;;2.13;;
5795;SDS011;2924;51.458;7.046;2022-12-18T06:27:27;1.93;;;1.80;;
5795;SDS011;2924;51.458;7.046;2022-12-18T06:29:53;1.93;;;1.73;;
5795;SDS011;2924;51.458;7.046;2022-12-18T06:32:18;1.93;;;1.80;;
5795;SDS011;2924;51.458;7.046;2022-12-18T06:34:45;2.13;;;1.87;;
5795;SDS011;2924;51.458;7.046;2022-12-18T06:37:10;3.30;;;2.27;;
5795;SDS011;2924;51.458;7.046;2022-12-18T06:39:36;2.43;;;2.00;;
5795;SDS011;2924;51.458;7.046;2022-12-18T06:42:02;2.57;;;1.97;;
5795;SDS011;2924;51.458;7.046;2022-12-18T06:44:28;1.73;;;1.63;;
5795;SDS011;2924;51.458;7.046;2022-12-18T06:46:53;1.43;;;1.33;;
5795;SDS011;2924;51.458;7.046;2022-12-18T06:49:19;1.77;;;1.30;;
5795;SDS011;2924;51.458;7.046;2022-12-18T06:51:45;2.67;;;2.23;;
5795;SDS011;2924;51.458;7.046;2022-12-18T06:54:11;2.23;;;1.93;;
5795;SDS011;2924;51.458;7.046;2022-12-18T06:56:37;3.70;;;1.70;;
5795;SDS011;2924;51.458;7.046;2022-12-18T06:59:03;2.43;;;2.00;;
5795;SDS011;2924;51.458;7.046;2022-12-18T07:01:28;2.10;;;1.90;;
5795;SDS011;2924;51.458;7.046;2022-12-18T07:03:54;1.43;;;1.33;;
5795;SDS011;2924;51.458;7.046;2022-12-18T07:06:22;1.37;;;1.17;;
5795;SDS011;2924;51.458;7.046;2022-12-18T07:08:50;2.23;;;1.73;;
5795;SDS011;2924;51.458;7.046;2022-12-18T07:11:17;2.83;;;2.10;;
5795;SDS011;2924;51.458;7.046;2022-12-18T07:13:43;0.97;;;0.97;;
5795;SDS011;2924;51.458;7.046;2022-12-18T07:16:28;2.43;;;1.87;;
5795;SDS011;2924;51.458;7.046;2022-12-18T07:18:54;2.30;;;2.20;;
5795;SDS011;2924;51.458;7.046;2022-12-18T07:21:21;2.10;;;1.90;;
5795;SDS011;2924;51.458;7.046;2022-12-18T07:23:47;2.70;;;2.10;;
5795;SDS011;2924;51.458;7.046;2022-12-18T07:26:13;3.87;;;2.60;;
5795;SDS011;2924;51.458;7.046;2022-12-18T07:28:41;3.13;;;2.63;;
5795;SDS011;2924;51.458;7.046;2022-12-18T07:31:17;7.40;;;3.80;;
5795;SDS011;2924;51.458;7.046;2022-12-18T07:33:45;2.13;;;1.83;;
5795;SDS011;2924;51.458;7.046;2022-12-18T07:36:11;3.97;;;1.20;;
5795;SDS011;2924;51.458;7.046;2022-12-18T07:38:36;3.57;;;2.30;;
5795;SDS011;2924;51.458;7.046;2022-12-18T07:41:03;4.20;;;2.30;;
5795;SDS011;2924;51.458;7.046;2022-12-18T07:43:31;4.60;;;2.60;;
5795;SDS011;2924;51.458;7.046;2022-12-18T07:45:57;3.70;;;2.13;;
5795;SDS011;2924;51.458;7.046;2022-12-18T07:48:22;3.93;;;2.67;;
5795;SDS011;2924;51.458;7.046;2022-12-18T07:50:48;2.80;;;2.50;;
5795;SDS011;2924;51.458;7.046;2022-12-18T07:53:14;3.43;;;2.67;;
5795;SDS011;2924;51.458;7.046;2022-12-18T07:55:40;3.30;;;2.60;;
5795;SDS011;2924;51.458;7.046;2022-12-18T07:58:06;5.10;;;3.13;;
5795;SDS011;2924;51.458;7.046;2022-12-18T08:00:32;3.13;;;2.10;;
5795;SDS011;2924;51.458;7.046;2022-12-18T08:02:57;2.67;;;2.43;;
5795;SDS011;2924;51.458;7.046;2022-12-18T08:05:23;4.00;;;2.93;;
5795;SDS011;2924;51.458;7.046;2022-12-18T08:07:49;3.07;;;2.77;;
5795;SDS011;2924;51.458;7.046;2022-12-18T08:10:14;3.10;;;2.40;;
5795;SDS011;2924;51.458;7.046;2022-12-18T08:12:40;2.50;;;2.30;;
5795;SDS011;2924;51.458;7.046;2022-12-18T08:15:06;2.33;;;2.13;;
5795;SDS011;2924;51.458;7.046;2022-12-18T08:17:33;2.50;;;2.10;;
5795;SDS011;2924;51.458;7.046;2022-12-18T08:19:58;2.97;;;2.20;;
5795;SDS011;2924;51.458;7.046;2022-12-18T08:22:24;3.37;;;2.60;;
5795;SDS011;2924;51.458;7.046;2022-12-18T08:24:50;4.17;;;2.27;;
5795;SDS011;2924;51.458;7.046;2022-12-18T08:27:15;2.43;;;2.23;;
5795;SDS011;2924;51.458;7.046;2022-12-18T08:29:41;2.53;;;2.10;;
5795;SDS011;2924;51.458;7.046;2022-12-18T08:32:07;7.90;;;2.40;;
5795;SDS011;2924;51.458;7.046;2022-12-18T08:34:32;3.10;;;2.50;;
5795;SDS011;2924;51.458;7.046;2022-12-18T08:36:58;2.70;;;2.10;;
5795;SDS011;2924;51.458;7.046;2022-12-18T08:39:24;2.60;;;2.00;;
5795;SDS011;2924;51.458;7.046;2022-12-18T08:41:49;2.77;;;2.57;;
5795;SDS011;2924;51.458;7.046;2022-12-18T08:44:34;2.20;;;2.00;;
5795;SDS011;2924;51.458;7.046;2022-12-18T08:47:02;4.37;;;2.70;;
5795;SDS011;2924;51.458;7.046;2022-12-18T08:49:28;2.77;;;2.47;;
5795;SDS011;2924;51.458;7.046;2022-12-18T08:51:54;7.80;;;3.60;;
5795;SDS011;2924;51.458;7.046;2022-12-18T08:54:22;4.87;;;3.00;;
5795;SDS011;2924;51.458;7.046;2022-12-18T08:56:47;2.90;;;2.60;;
5795;SDS011;2924;51.458;7.046;2022-12-18T08:59:14;1.50;;;1.40;;
5795;SDS011;2924;51.458;7.046;2022-12-18T09:01:40;1.90;;;1.70;;
5795;SDS011;2924;51.458;7.046;2022-12-18T09:04:07;2.90;;;1.87;;
5795;SDS011;2924;51.458;7.046;2022-12-18T09:06:33;2.40;;;2.20;;
5795;SDS011;2924;51.458;7.046;2022-12-18T09:08:59;3.27;;;2.27;;
5795;SDS011;2924;51.458;7.046;2022-12-18T09:11:26;3.33;;;2.60;;
5795;SDS011;2924;51.458;7.046;2022-12-18T09:13:53;3.00;;;2.47;;
5795;SDS011;2924;51.458;7.046;2022-12-18T09:16:19;4.43;;;2.00;;
5795;SDS011;2924;51.458;7.046;2022-12-18T09:18:46;2.13;;;1.80;;
5795;SDS011;2924;51.458;7.046;2022-12-18T09:21:13;2.63;;;1.70;;
5795;SDS011;2924;51.458;7.046;2022-12-18T09:23:41;1.83;;;1.70;;
5795;SDS011;2924;51.458;7.046;2022-12-18T09:26:07;3.37;;;1.80;;
5795;SDS011;2924;51.458;7.046;2022-12-18T09:28:32;1.57;;;1.47;;
5795;SDS011;2924;51.458;7.046;2022-12-18T09:30:58;6.30;;;1.67;;
5795;SDS011;2924;51.458;7.046;2022-12-18T09:33:28;2.50;;;1.90;;
5795;SDS011;2924;51.458;7.046;2022-12-18T09:35:53;2.87;;;2.57;;
5795;SDS011;2924;51.458;7.046;2022-12-18T09:38:19;3.40;;;1.73;;
5795;SDS011;2924;51.458;7.046;2022-12-18T09:40:46;2.70;;;2.23;;
5795;SDS011;2924;51.458;7.046;2022-12-18T09:43:17;5.00;;;1.33;;
5795;SDS011;2924;51.458;7.046;2022-12-18T09:46:05;9.13;;;1.60;;
5795;SDS011;2924;51.458;7.046;2022-12-18T09:48:35;4.03;;;2.50;;
5795;SDS011;2924;51.458;7.046;2022-12-18T09:51:12;3.33;;;1.93;;
5795;SDS011;2924;51.458;7.046;2022-12-18T09:53:58;2.70;;;2.03;;
5795;SDS011;2924;51.458;7.046;2022-12-18T09:56:28;1.50;;;1.40;;
5795;SDS011;2924;51.458;7.046;2022-12-18T09:59:00;3.40;;;2.50;;
5795;SDS011;2924;51.458;7.046;2022-12-18T10:01:28;3.27;;;1.83;;
5795;SDS011;2924;51.458;7.046;2022-12-18T10:03:54;7.67;;;2.17;;
5795;SDS011;2924;51.458;7.046;2022-12-18T10:06:23;1.40;;;1.30;;
5795;SDS011;2924;51.458;7.046;2022-12-18T10:12:00;7.93;;;2.50;;
5795;SDS011;2924;51.458;7.046;2022-12-18T10:14:43;3.90;;;2.07;;
5795;SDS011;2924;51.458;7.046;2022-12-18T10:17:49;7.00;;;1.90;;
5795;SDS011;2924;51.458;7.046;2022-12-18T10:20:24;3.00;;;2.17;;
5795;SDS011;2924;51.458;7.046;2022-12-18T10:23:18;4.63;;;2.43;;
5795;SDS011;2924;51.458;7.046;2022-12-18T10:26:02;2.10;;;2.00;;
5795;SDS011;2924;51.458;7.046;2022-12-18T10:28:30;3.90;;;1.83;;
5795;SDS011;2924;51.458;7.046;2022-12-18T10:30:57;2.07;;;1.70;;
5795;SDS011;2924;51.458;7.046;2022-12-18T10:33:24;1.80;;;1.70;;
5795;SDS011;2924;51.458;7.046;2022-12-18T10:35:53;2.83;;;1.67;;
5795;SDS011;2924;51.458;7.046;2022-12-18T10:38:21;2.63;;;1.93;;
5795;SDS011;2924;51.458;7.046;2022-12-18T10:41:04;1.93;;;1.83;;
5795;SDS011;2924;51.458;7.046;2022-12-18T10:44:09;2.73;;;1.60;;
5795;SDS011;2924;51.458;7.046;2022-12-18T10:46:37;4.53;;;2.17;;
5795;SDS011;2924;51.458;7.046;2022-12-18T10:49:03;7.87;;;3.97;;
5795;SDS011;2924;51.458;7.046;2022-12-18T10:56:28;4.30;;;2.80;;
5795;SDS011;2924;51.458;7.046;2022-12-18T10:58:59;9.13;;;2.73;;
5795;SDS011;2924;51.458;7.046;2022-12-18T11:01:51;22.70;;;4.43;;
5795;SDS011;2924;51.458;7.046;2022-12-18T11:07:07;7.03;;;3.03;;
5795;SDS011;2924;51.458;7.046;2022-12-18T11:09:37;7.73;;;2.77;;
5795;SDS011;2924;51.458;7.046;2022-12-18T11:12:17;3.70;;;2.33;;
5795;SDS011;2924;51.458;7.046;2022-12-18T11:14:49;10.23;;;2.70;;
5795;SDS011;2924;51.458;7.046;2022-12-18T11:17:22;2.00;;;1.90;;
5795;SDS011;2924;51.458;7.046;2022-12-18T11:19:58;5.60;;;1.80;;
5795;SDS011;2924;51.458;7.046;2022-12-18T11:22:26;6.73;;;1.73;;
5795;SDS011;2924;51.458;7.046;2022-12-18T11:25:00;7.53;;;2.60;;
5795;SDS011;2924;51.458;7.046;2022-12-18T11:27:30;3.67;;;1.67;;
5795;SDS011;2924;51.458;7.046;2022-12-18T11:38:22;4.17;;;2.40;;
5795;SDS011;2924;51.458;7.046;2022-12-18T11:40:55;8.33;;;2.37;;
5795;SDS011;2924;51.458;7.046;2022-12-18T11:43:53;6.47;;;2.60;;
5795;SDS011;2924;51.458;7.046;2022-12-18T11:46:24;2.67;;;2.40;;
5795;SDS011;2924;51.458;7.046;2022-12-18T11:51:35;8.03;;;2.07;;
5795;SDS011;2924;51.458;7.046;2022-12-18T11:54:11;6.13;;;2.57;;
5795;SDS011;2924;51.458;7.046;2022-12-18T12:05:06;9.40;;;3.10;;
5795;SDS011;2924;51.458;7.046;2022-12-18T12:07:45;3.77;;;2.53;;
5795;SDS011;2924;51.458;7.046;2022-12-18T12:10:36;2.50;;;2.07;;
5795;SDS011;2924;51.458;7.046;2022-12-18T12:24:02;2.43;;;2.23;;
5795;SDS011;2924;51.458;7.046;2022-12-18T12:26:40;7.83;;;3.13;;
5795;SDS011;2924;51.458;7.046;2022-12-18T12:32:11;5.00;;;2.60;;
5795;SDS011;2924;51.458;7.046;2022-12-18T12:40:12;7.20;;;3.33;;
5795;SDS011;2924;51.458;7.046;2022-12-18T12:42:44;12.73;;;3.07;;
5795;SDS011;2924;51.458;7.046;2022-12-18T12:45:36;4.70;;;3.13;;
5795;SDS011;2924;51.458;7.046;2022-12-18T12:48:24;4.33;;;3.07;;
5795;SDS011;2924;51.458;7.046;2022-12-18T12:51:12;3.97;;;2.80;;
5795;SDS011;2924;51.458;7.046;2022-12-18T12:53:44;7.27;;;4.27;;
5795;SDS011;2924;51.458;7.046;2022-12-18T12:56:14;9.63;;;2.97;;
5795;SDS011;2924;51.458;7.046;2022-12-18T13:04:04;4.60;;;2.50;;
5795;SDS011;2924;51.458;7.046;2022-12-18T13:06:47;5.17;;;2.10;;
5795;SDS011;2924;51.458;7.046;2022-12-18T13:09:13;7.60;;;3.13;;
5795;SDS011;2924;51.458;7.046;2022-12-18T13:11:42;10.43;;;3.10;;
5795;SDS011;2924;51.458;7.046;2022-12-18T13:14:29;4.67;;;3.30;;
5795;SDS011;2924;51.458;7.046;2022-12-18T13:19:49;16.30;;;3.13;;
5795;SDS011;2924;51.458;7.046;2022-12-18T13:22:59;7.00;;;3.57;;
5795;SDS011;2924;51.458;7.046;2022-12-18T13:35:42;7.82;;;4.45;;
5795;SDS011;2924;51.458;7.046;2022-12-18T13:48:31;8.63;;;3.57;;
5795;SDS011;2924;51.458;7.046;2022-12-18T13:51:06;5.93;;;3.93;;
5795;SDS011;2924;51.458;7.046;2022-12-18T13:53:35;8.87;;;5.00;;
5795;SDS011;2924;51.458;7.046;2022-12-18T13:56:27;8.80;;;4.33;;
5795;SDS011;2924;51.458;7.046;2022-12-18T14:01:43;6.13;;;4.20;;
5795;SDS011;2924;51.458;7.046;2022-12-18T14:04:24;6.57;;;4.57;;
5795;SDS011;2924;51.458;7.046;2022-12-18T14:06:55;5.90;;;4.47;;
5795;SDS011;2924;51.458;7.046;2022-12-18T14:09:30;5.70;;;4.40;;
5795;SDS011;2924;51.458;7.046;2022-12-18T14:12:00;6.03;;;4.07;;
5795;SDS011;2924;51.458;7.046;2022-12-18T14:14:46;6.27;;;4.10;;
5795;SDS011;2924;51.458;7.046;2022-12-18T14:17:15;8.20;;;5.47;;
5795;SDS011;2924;51.458;7.046;2022-12-18T14:19:42;9.07;;;4.17;;
5795;SDS011;2924;51.458;7.046;2022-12-18T14:22:17;7.87;;;4.77;;
5795;SDS011;2924;51.458;7.046;2022-12-18T14:24:45;5.57;;;4.30;;
5795;SDS011;2924;51.458;7.046;2022-12-18T14:27:20;6.40;;;4.60;;
5795;SDS011;2924;51.458;7.046;2022-12-18T14:29:47;12.13;;;4.43;;
5795;SDS011;2924;51.458;7.046;2022-12-18T14:32:14;8.23;;;5.53;;
5795;SDS011;2924;51.458;7.046;2022-12-18T14:34:51;11.07;;;4.40;;
5795;SDS011;2924;51.458;7.046;2022-12-18T14:37:21;8.80;;;6.20;;
5795;SDS011;2924;51.458;7.046;2022-12-18T14:39:52;16.33;;;5.33;;
5795;SDS011;2924;51.458;7.046;2022-12-18T14:42:26;9.87;;;5.30;;
5795;SDS011;2924;51.458;7.046;2022-12-18T14:47:57;10.03;;;5.17;;
5795;SDS011;2924;51.458;7.046;2022-12-18T14:50:23;9.03;;;4.90;;
5795;SDS011;2924;51.458;7.046;2022-12-18T14:52:49;8.07;;;5.77;;
5795;SDS011;2924;51.458;7.046;2022-12-18T14:55:19;6.90;;;4.50;;
5795;SDS011;2924;51.458;7.046;2022-12-18T14:57:46;13.80;;;6.03;;
5795;SDS011;2924;51.458;7.046;2022-12-18T15:00:17;8.70;;;5.40;;
5795;SDS011;2924;51.458;7.046;2022-12-18T15:02:45;7.63;;;5.43;;
5795;SDS011;2924;51.458;7.046;2022-12-18T15:05:18;11.00;;;5.33;;
5795;SDS011;2924;51.458;7.046;2022-12-18T15:07:47;9.03;;;5.17;;
5795;SDS011;2924;51.458;7.046;2022-12-18T15:10:18;9.47;;;5.43;;
5795;SDS011;2924;51.458;7.046;2022-12-18T15:20:39;7.60;;;5.00;;
5795;SDS011;2924;51.458;7.046;2022-12-18T15:23:26;13.47;;;6.60;;
5795;SDS011;2924;51.458;7.046;2022-12-18T15:28:37;7.63;;;5.80;;
5795;SDS011;2924;51.458;7.046;2022-12-18T15:31:05;10.93;;;5.93;;
5795;SDS011;2924;51.458;7.046;2022-12-18T15:33:33;12.03;;;6.80;;
5795;SDS011;2924;51.458;7.046;2022-12-18T15:36:01;8.23;;;5.30;;
5795;SDS011;2924;51.458;7.046;2022-12-18T15:38:34;11.97;;;6.93;;
5795;SDS011;2924;51.458;7.046;2022-12-18T15:41:00;8.13;;;5.90;;
5795;SDS011;2924;51.458;7.046;2022-12-18T15:43:27;9.47;;;5.70;;
5795;SDS011;2924;51.458;7.046;2022-12-18T15:46:21;8.84;;;6.53;;
5795;SDS011;2924;51.458;7.046;2022-12-18T15:48:49;11.20;;;6.70;;
5795;SDS011;2924;51.458;7.046;2022-12-18T15:51:20;12.97;;;6.80;;
5795;SDS011;2924;51.458;7.046;2022-12-18T15:53:50;10.23;;;6.13;;
5795;SDS011;2924;51.458;7.046;2022-12-18T15:56:18;11.07;;;6.57;;
5795;SDS011;2924;51.458;7.046;2022-12-18T15:59:04;11.07;;;6.70;;
5795;SDS011;2924;51.458;7.046;2022-12-18T16:01:35;11.03;;;7.10;;
5795;SDS011;2924;51.458;7.046;2022-12-18T16:04:00;11.50;;;6.30;;
5795;SDS011;2924;51.458;7.046;2022-12-18T16:06:26;11.30;;;6.97;;
5795;SDS011;2924;51.458;7.046;2022-12-18T16:08:51;11.57;;;7.80;;
5795;SDS011;2924;51.458;7.046;2022-12-18T16:14:21;14.80;;;7.20;;
5795;SDS011;2924;51.458;7.046;2022-12-18T16:16:52;9.87;;;6.80;;
5795;SDS011;2924;51.458;7.046;2022-12-18T16:19:19;16.03;;;7.00;;
5795;SDS011;2924;51.458;7.046;2022-12-18T16:21:49;10.07;;;6.30;;
5795;SDS011;2924;51.458;7.046;2022-12-18T16:24:18;12.20;;;6.77;;
5795;SDS011;2924;51.458;7.046;2022-12-18T16:26:46;19.00;;;6.70;;
5795;SDS011;2924;51.458;7.046;2022-12-18T16:29:13;11.57;;;7.23;;
5795;SDS011;2924;51.458;7.046;2022-12-18T16:31:39;9.67;;;6.23;;
5795;SDS011;2924;51.458;7.046;2022-12-18T16:36:50;13.03;;;8.13;;
5795;SDS011;2924;51.458;7.046;2022-12-18T16:39:16;12.70;;;7.70;;
5795;SDS011;2924;51.458;7.046;2022-12-18T16:41:42;15.60;;;7.93;;
5795;SDS011;2924;51.458;7.046;2022-12-18T16:44:08;12.77;;;7.20;;
5795;SDS011;2924;51.458;7.046;2022-12-18T16:46:35;16.43;;;8.67;;
5795;SDS011;2924;51.458;7.046;2022-12-18T16:49:01;12.70;;;8.00;;
5795;SDS011;2924;51.458;7.046;2022-12-18T16:51:28;14.23;;;8.40;;
5795;SDS011;2924;51.458;7.046;2022-12-18T16:53:54;16.30;;;8.70;;
5795;SDS011;2924;51.458;7.046;2022-12-18T16:56:20;11.70;;;7.00;;
5795;SDS011;2924;51.458;7.046;2022-12-18T16:58:49;9.90;;;7.37;;
5795;SDS011;2924;51.458;7.046;2022-12-18T17:01:19;13.00;;;8.70;;
5795;SDS011;2924;51.458;7.046;2022-12-18T17:03:52;11.63;;;7.97;;
5795;SDS011;2924;51.458;7.046;2022-12-18T17:06:20;14.13;;;7.33;;
5795;SDS011;2924;51.458;7.046;2022-12-18T17:08:47;10.97;;;7.53;;
5795;SDS011;2924;51.458;7.046;2022-12-18T17:11:13;17.13;;;8.70;;
5795;SDS011;2924;51.458;7.046;2022-12-18T17:13:39;14.33;;;8.23;;
5795;SDS011;2924;51.458;7.046;2022-12-18T17:16:05;12.07;;;7.17;;
5795;SDS011;2924;51.458;7.046;2022-12-18T17:18:32;12.03;;;8.07;;
5795;SDS011;2924;51.458;7.046;2022-12-18T17:21:18;11.12;;;7.28;;
5795;SDS011;2924;51.458;7.046;2022-12-18T17:23:54;15.76;;;7.58;;
5795;SDS011;2924;51.458;7.046;2022-12-18T17:26:35;13.44;;;6.96;;
5795;SDS011;2924;51.458;7.046;2022-12-18T17:29:01;13.27;;;8.57;;
5795;SDS011;2924;51.458;7.046;2022-12-18T17:31:28;15.03;;;9.40;;
5795;SDS011;2924;51.458;7.046;2022-12-18T17:33:54;14.50;;;9.53;;